Time;durP1;ratioP1;P1;durP2;ratioP2;P2;SDS_P1;SDS_P2;PMS_P1;PMS_P2;Temp;Humidity;BMP_temperature;BMP_pressure;BME280_temperature;BME280_humidity;BME280_pressure;Samples;Min_cycle;Max_cycle;Signal;HPM_P1;HPM_P2
2024/04/06 00:00:31;;;;;;;7.97;2.97;;;;;;;0.76;50.16;100323.75;4887756;29;20044;-75
2024/04/06 00:02:57;;;;;;;4.32;2.80;;;;;;;0.96;50.02;100349.28;4871780;29;20465;-74
2024/04/06 00:05:23;;;;;;;4.72;2.75;;;;;;;0.90;49.83;100326.84;4902863;29;20104;-73
2024/04/06 00:07:49;;;;;;;5.47;2.60;;;;;;;0.92;50.26;100326.91;4871074;29;20052;-74
2024/04/06 00:10:17;;;;;;;5.93;2.90;;;;;;;1.11;50.06;100338.72;4889269;29;20062;-73
2024/04/06 00:12:43;;;;;;;6.82;2.78;;;;;;;1.13;49.92;100330.28;4889618;29;20393;-73
2024/04/06 00:15:09;;;;;;;4.60;2.80;;;;;;;1.07;50.01;100316.38;4872644;29;20086;-73
2024/04/06 00:17:36;;;;;;;7.10;2.58;;;;;;;1.24;50.09;100338.38;4886728;29;20041;-73
2024/04/06 00:20:03;;;;;;;18.83;4.00;;;;;;;1.15;49.86;100315.84;4887133;29;20048;-73
2024/04/06 00:22:30;;;;;;;7.40;2.70;;;;;;;1.28;49.57;100321.41;4886924;29;20079;-72
2024/04/06 00:24:56;;;;;;;7.60;2.75;;;;;;;1.31;49.91;100331.78;4872014;29;20044;-73
2024/04/06 00:27:22;;;;;;;7.18;2.90;;;;;;;1.38;49.43;100332.88;4887479;29;20046;-74
2024/04/06 00:29:48;;;;;;;7.85;2.80;;;;;;;1.22;49.47;100316.06;4886250;29;20174;-72
2024/04/06 00:32:14;;;;;;;6.03;3.63;;;;;;;1.18;49.68;100295.47;4885381;29;20622;-72
2024/04/06 00:34:40;;;;;;;8.57;3.08;;;;;;;1.47;50.23;100323.84;4887256;29;20044;-73
2024/04/06 00:37:07;;;;;;;6.53;3.40;;;;;;;1.68;49.59;100328.00;4886779;29;20107;-72
2024/04/06 00:39:34;;;;;;;11.18;3.35;;;;;;;1.79;49.76;100320.66;4886398;29;20179;-71
2024/04/06 00:42:00;;;;;;;6.38;3.60;;;;;;;1.88;49.69;100304.72;4901599;29;20051;-73
2024/04/06 00:44:26;;;;;;;8.55;3.20;;;;;;;1.98;48.90;100290.53;4886227;29;20578;-72
2024/04/06 00:46:52;;;;;;;9.45;3.65;;;;;;;2.10;48.92;100299.50;4870913;29;20037;-70
2024/04/06 00:49:19;;;;;;;7.35;2.90;;;;;;;1.82;48.97;100259.19;4886961;29;20045;-74
2024/04/06 00:51:45;;;;;;;6.07;2.78;;;;;;;1.88;48.90;100266.22;4871973;29;20503;-73
2024/04/06 00:54:11;;;;;;;6.13;2.85;;;;;;;2.11;49.33;100298.66;4886861;29;20051;-74
2024/04/06 00:56:38;;;;;;;7.55;2.97;;;;;;;1.82;49.36;100228.41;4887326;29;20063;-74
2024/04/06 00:59:04;;;;;;;6.57;3.05;;;;;;;1.82;48.91;100217.28;4886323;29;20040;-72
2024/04/06 01:01:32;;;;;;;4.90;2.58;;;;;;;2.23;48.86;100280.22;4885244;29;20060;-70
2024/04/06 01:03:58;;;;;;;4.10;2.80;;;;;;;2.16;48.65;100260.34;4886619;29;20046;-71
2024/04/06 01:06:25;;;;;;;3.92;2.63;;;;;;;2.16;48.41;100273.16;4886235;29;20050;-71
2024/04/06 01:08:51;;;;;;;6.90;3.35;;;;;;;2.10;48.55;100280.66;4884473;29;20040;-71
2024/04/06 01:11:17;;;;;;;5.32;3.00;;;;;;;1.92;48.85;100271.53;4885878;29;20052;-71
2024/04/06 01:13:43;;;;;;;9.85;3.35;;;;;;;1.98;49.07;100273.41;4886314;29;20511;-72
2024/04/06 01:16:10;;;;;;;4.78;2.80;;;;;;;1.92;49.20;100257.81;4870612;29;20491;-74
2024/04/06 01:18:36;;;;;;;7.28;3.40;;;;;;;1.79;48.99;100249.72;4870746;29;20052;-72
2024/04/06 01:21:03;;;;;;;6.78;3.03;;;;;;;1.76;49.16;100252.16;4885452;29;20542;-72
2024/04/06 01:23:29;;;;;;;7.15;3.20;;;;;;;1.75;49.28;100270.09;4870782;29;20045;-74
2024/04/06 01:25:56;;;;;;;5.00;3.00;;;;;;;1.50;49.21;100220.50;4870229;29;20117;-72
2024/04/06 01:28:22;;;;;;;7.18;3.00;;;;;;;1.62;49.23;100245.69;4888758;29;20143;-72
2024/04/06 01:30:48;;;;;;;6.57;3.45;;;;;;;1.66;49.42;100257.78;4887782;29;20176;-73
2024/04/06 01:33:15;;;;;;;3.83;2.80;;;;;;;1.56;49.39;100230.09;4871146;29;20391;-72
2024/04/06 01:35:41;;;;;;;4.43;2.85;;;;;;;1.69;49.37;100252.75;4902454;29;20044;-72
2024/04/06 01:38:08;;;;;;;5.57;3.00;;;;;;;1.68;49.57;100247.59;4870403;29;20060;-71
2024/04/06 01:40:34;;;;;;;5.80;2.55;;;;;;;1.50;49.44;100216.22;4874402;29;20048;-72
2024/04/06 01:43:00;;;;;;;6.60;3.05;;;;;;;1.59;49.12;100233.63;4887245;29;20136;-71
2024/04/06 01:45:26;;;;;;;4.00;2.63;;;;;;;1.75;49.66;100268.38;4885898;29;20059;-71
2024/04/06 01:47:52;;;;;;;4.40;2.80;;;;;;;1.82;49.59;100269.47;4886905;29;20064;-71
2024/04/06 01:50:19;;;;;;;5.63;2.88;;;;;;;1.83;49.98;100255.81;4874178;29;20048;-72
2024/04/06 01:52:45;;;;;;;5.75;3.17;;;;;;;1.89;49.68;100252.56;4888148;29;20041;-72
2024/04/06 01:55:11;;;;;;;7.63;3.17;;;;;;;1.97;49.82;100261.41;4887748;29;20137;-72
2024/04/06 01:57:37;;;;;;;5.07;2.83;;;;;;;1.88;49.71;100237.97;4886083;29;20531;-73
2024/04/06 02:00:05;;;;;;;7.00;3.20;;;;;;;1.88;49.64;100259.41;4870914;29;20045;-71
2024/04/06 02:02:38;;;;;;;5.97;2.95;;;;;;;1.88;49.24;100255.94;4872226;29;20041;-72
2024/04/06 02:05:04;;;;;;;4.40;2.78;;;;;;;1.89;49.36;100260.25;4902223;29;20053;-73
2024/04/06 02:07:31;;;;;;;6.15;3.03;;;;;;;1.65;49.27;100245.81;4885735;29;20115;-70
2024/04/06 02:09:57;;;;;;;8.52;3.47;;;;;;;1.73;49.74;100259.75;4887252;29;20135;-71
2024/04/06 02:12:23;;;;;;;8.68;3.38;;;;;;;1.60;49.85;100217.41;4858648;29;20465;-71
2024/04/06 02:14:50;;;;;;;5.75;3.58;;;;;;;1.93;50.33;100252.75;4870717;29;20056;-71
2024/04/06 02:17:16;;;;;;;10.38;3.78;;;;;;;2.01;49.87;100244.41;4871666;29;20124;-71
2024/04/06 02:19:43;;;;;;;3.95;2.50;;;;;;;1.92;50.10;100214.16;4885787;29;20053;-72
2024/04/06 02:22:09;;;;;;;6.10;3.17;;;;;;;2.13;50.02;100221.72;4886359;29;20142;-71
2024/04/06 02:24:36;;;;;;;8.43;3.30;;;;;;;2.30;49.51;100232.53;4840334;29;20048;-71
2024/04/06 02:27:03;;;;;;;8.68;3.35;;;;;;;2.23;49.35;100225.44;4886904;29;20052;-72
2024/04/06 02:29:30;;;;;;;5.55;3.00;;;;;;;1.99;49.57;100187.88;4884953;29;20687;-72
2024/04/06 02:31:57;;;;;;;7.75;3.25;;;;;;;1.77;49.79;100156.41;4884825;29;20501;-73
2024/04/06 02:34:23;;;;;;;6.60;2.85;;;;;;;2.09;49.75;100210.47;4890999;29;20048;-72
2024/04/06 02:36:49;;;;;;;7.03;3.13;;;;;;;2.08;49.70;100210.41;4885577;29;20040;-74
2024/04/06 02:39:15;;;;;;;6.65;3.20;;;;;;;2.06;49.77;100223.22;4868312;29;20148;-73
2024/04/06 02:41:42;;;;;;;6.95;3.17;;;;;;;1.98;49.53;100203.25;4854835;29;20044;-73
2024/04/06 02:44:08;;;;;;;4.53;3.00;;;;;;;2.04;49.74;100212.03;4884062;29;20981;-73
2024/04/06 02:46:34;;;;;;;4.90;2.95;;;;;;;2.05;49.80;100213.78;4874997;29;20097;-73
2024/04/06 02:49:00;;;;;;;6.07;3.42;;;;;;;2.03;49.98;100200.00;4870660;29;20055;-73
2024/04/06 02:51:27;;;;;;;7.57;3.33;;;;;;;2.08;50.17;100185.63;4884714;29;20515;-74
2024/04/06 02:53:53;;;;;;;5.95;2.90;;;;;;;2.14;49.72;100184.06;4869810;29;20044;-73
2024/04/06 02:56:19;;;;;;;4.38;3.15;;;;;;;2.28;49.90;100198.22;4902225;29;20040;-72
2024/04/06 02:58:45;;;;;;;6.88;3.50;;;;;;;2.50;50.11;100222.84;4885161;29;20584;-73
2024/04/06 03:01:11;;;;;;;6.57;3.45;;;;;;;2.23;50.08;100143.25;4885379;29;20508;-73
2024/04/06 03:03:37;;;;;;;5.30;3.47;;;;;;;2.59;49.18;100214.56;4890620;29;20040;-73
2024/04/06 03:06:04;;;;;;;9.40;3.53;;;;;;;2.44;49.41;100189.25;4900554;29;20407;-73
2024/04/06 03:08:30;;;;;;;7.82;3.53;;;;;;;2.24;49.98;100147.56;4884871;29;20558;-72
2024/04/06 03:10:56;;;;;;;6.40;3.40;;;;;;;2.30;49.88;100173.47;4885434;29;20051;-72
2024/04/06 03:13:22;;;;;;;7.63;3.67;;;;;;;2.28;50.09;100182.81;4899067;29;20044;-73
2024/04/06 03:15:48;;;;;;;5.93;3.60;;;;;;;2.32;49.80;100197.47;4869604;29;20040;-72
2024/04/06 03:18:14;;;;;;;7.20;3.40;;;;;;;2.45;49.92;100200.44;4883373;29;20047;-73
2024/04/06 03:20:40;;;;;;;5.82;3.42;;;;;;;2.29;49.96;100178.53;4869319;29;20047;-72
2024/04/06 03:23:07;;;;;;;5.30;3.50;;;;;;;2.42;49.53;100196.09;4884643;29;20048;-74
2024/04/06 03:25:34;;;;;;;6.57;3.60;;;;;;;2.29;49.51;100183.66;4884567;29;20132;-73
2024/04/06 03:28:01;;;;;;;5.90;3.60;;;;;;;2.47;50.29;100204.78;4885286;29;20064;-73
2024/04/06 03:30:27;;;;;;;9.88;3.88;;;;;;;2.40;50.20;100180.59;4869281;29;20055;-73
2024/04/06 03:32:53;;;;;;;6.93;3.38;;;;;;;2.43;49.73;100182.38;4903020;29;20470;-73
2024/04/06 03:35:20;;;;;;;6.32;3.70;;;;;;;2.47;49.97;100199.63;4888523;29;20044;-72
2024/04/06 03:37:48;;;;;;;8.38;4.03;;;;;;;2.45;50.06;100185.88;4904326;29;20465;-72
2024/04/06 03:40:15;;;;;;;7.80;3.85;;;;;;;2.54;49.86;100195.56;4889142;29;20040;-72
2024/04/06 03:42:42;;;;;;;8.82;3.65;;;;;;;2.51;50.16;100180.91;4889598;29;20610;-73
2024/04/06 03:45:11;;;;;;;6.68;4.13;;;;;;;2.49;49.91;100186.84;4902700;29;20040;-72
2024/04/06 03:47:38;;;;;;;7.63;4.38;;;;;;;2.70;50.37;100196.88;4888119;29;20131;-73
2024/04/06 03:50:04;;;;;;;6.53;3.72;;;;;;;2.68;49.86;100184.00;4871149;29;20041;-73
2024/04/06 03:52:31;;;;;;;12.18;3.97;;;;;;;2.56;50.26;100174.22;4871996;29;20527;-73
2024/04/06 03:54:57;;;;;;;7.75;4.30;;;;;;;2.28;49.65;100128.88;4888263;29;20036;-73
2024/04/06 03:57:23;;;;;;;9.73;4.20;;;;;;;2.71;50.90;100180.63;4888805;29;20411;-71
2024/04/06 03:59:49;;;;;;;7.43;4.38;;;;;;;2.70;49.86;100181.47;4870192;29;20496;-74
2024/04/06 04:02:16;;;;;;;10.05;4.55;;;;;;;2.60;49.38;100180.31;4902148;29;20036;-74
2024/04/06 04:04:42;;;;;;;8.10;4.75;;;;;;;2.45;50.26;100159.31;4902677;29;20063;-75
2024/04/06 04:07:08;;;;;;;6.75;4.40;;;;;;;2.58;50.40;100169.13;4873699;29;20064;-74
2024/04/06 04:09:34;;;;;;;7.53;4.57;;;;;;;2.49;50.43;100156.88;4871859;29;20518;-74
2024/04/06 04:12:00;;;;;;;11.95;4.55;;;;;;;2.47;50.35;100160.25;4888883;29;20148;-75
2024/04/06 04:14:27;;;;;;;14.68;5.38;;;;;;;2.47;51.21;100152.53;4888480;29;20045;-76
2024/04/06 04:16:53;;;;;;;12.18;5.20;;;;;;;2.73;50.53;100188.41;4870988;29;20045;-74
2024/04/06 04:19:19;;;;;;;11.88;5.50;;;;;;;2.71;50.43;100184.09;4876313;29;20127;-73
2024/04/06 04:21:45;;;;;;;12.18;5.82;;;;;;;2.54;50.54;100159.56;4886828;29;20051;-75
2024/04/06 04:24:11;;;;;;;12.48;6.05;;;;;;;2.48;50.98;100167.13;4872594;29;20045;-75
2024/04/06 04:26:37;;;;;;;10.82;6.18;;;;;;;2.61;51.30;100170.94;4903218;29;20048;-74
2024/04/06 04:29:04;;;;;;;11.68;6.10;;;;;;;2.70;51.37;100172.06;4888831;29;20049;-73
2024/04/06 04:31:30;;;;;;;12.20;6.20;;;;;;;2.71;51.43;100175.50;4886442;29;20953;-74
2024/04/06 04:33:56;;;;;;;10.32;6.00;;;;;;;2.74;51.42;100182.44;4856780;29;20049;-75
2024/04/06 04:36:22;;;;;;;11.65;6.38;;;;;;;2.52;51.45;100156.13;4887441;29;20104;-73
2024/04/06 04:38:49;;;;;;;12.27;6.32;;;;;;;2.50;51.92;100161.19;4883671;29;20104;-73
2024/04/06 04:41:15;;;;;;;11.50;6.05;;;;;;;2.68;51.79;100173.72;4867711;29;20131;-72
2024/04/06 04:43:42;;;;;;;10.88;6.15;;;;;;;2.78;52.37;100166.25;4852788;29;20048;-72
2024/04/06 04:46:09;;;;;;;11.32;6.03;;;;;;;2.83;51.69;100157.00;4883735;29;20576;-72
2024/04/06 04:48:56;;;;;;;9.05;5.78;;;;;;;2.71;51.15;100127.56;4868090;29;20048;-74
2024/04/06 04:51:26;;;;;;;13.40;6.15;;;;;;;2.79;51.07;100160.28;4868130;29;20049;-73
2024/04/06 04:53:55;;;;;;;11.27;6.57;;;;;;;2.70;51.72;100145.47;4888916;29;20249;-74
2024/04/06 04:56:21;;;;;;;13.00;6.85;;;;;;;2.94;51.44;100177.84;4868834;29;20048;-72
2024/04/06 04:58:48;;;;;;;11.98;6.85;;;;;;;2.94;51.51;100154.72;4837097;29;20189;-72
2024/04/06 05:01:17;;;;;;;10.73;6.50;;;;;;;3.11;51.34;100168.91;4869388;29;20033;-74
2024/04/06 05:03:44;;;;;;;10.00;6.43;;;;;;;3.14;51.43;100160.41;4868772;29;20182;-73
2024/04/06 05:06:10;;;;;;;9.02;6.20;;;;;;;3.18;50.86;100164.81;4869027;29;20132;-72
2024/04/06 05:08:37;;;;;;;11.38;6.47;;;;;;;3.20;51.09;100163.13;4851725;29;20557;-72
2024/04/06 05:11:03;;;;;;;13.57;6.78;;;;;;;3.19;51.18;100179.44;4882985;29;20045;-75
2024/04/06 05:13:29;;;;;;;11.95;7.22;;;;;;;3.18;51.02;100167.41;4867462;29;20140;-73
2024/04/06 05:15:57;;;;;;;11.68;6.75;;;;;;;3.27;51.44;100174.47;4882528;29;20136;-74
2024/04/06 05:18:23;;;;;;;12.98;7.72;;;;;;;3.17;51.60;100156.22;4868514;29;20049;-72
2024/04/06 05:20:50;;;;;;;19.02;7.25;;;;;;;3.33;51.10;100173.78;4867973;29;20065;-75
2024/04/06 05:23:17;;;;;;;12.57;7.05;;;;;;;3.25;51.13;100166.72;4869649;29;20053;-73
2024/04/06 05:25:47;;;;;;;17.15;8.10;;;;;;;3.41;51.54;100164.56;4873413;29;20048;-73
2024/04/06 05:28:18;;;;;;;13.10;7.43;;;;;;;3.31;51.50;100140.31;4871448;29;20526;-73
2024/04/06 05:30:45;;;;;;;14.57;7.78;;;;;;;3.55;50.72;100155.47;4886764;29;20086;-74
2024/04/06 05:33:13;;;;;;;13.00;7.03;;;;;;;3.74;50.95;100167.13;4868773;29;20076;-74
2024/04/06 05:35:44;;;;;;;11.70;7.03;;;;;;;3.74;50.81;100161.97;4884554;29;20048;-74
2024/04/06 05:38:10;;;;;;;13.48;7.47;;;;;;;3.57;50.50;100140.97;4883478;29;20060;-73
2024/04/06 05:40:42;;;;;;;15.38;7.45;;;;;;;3.54;50.46;100142.56;4898509;29;20036;-74
2024/04/06 05:43:08;;;;;;;16.15;8.60;;;;;;;3.51;50.88;100134.78;4900049;29;20104;-75
2024/04/06 05:45:36;;;;;;;13.25;7.22;;;;;;;3.49;50.77;100124.44;4884419;29;20072;-74
2024/04/06 05:48:05;;;;;;;15.35;8.45;;;;;;;3.63;50.60;100162.53;4882738;29;20045;-74
2024/04/06 05:50:37;;;;;;;11.45;7.18;;;;;;;3.51;51.09;100145.94;4882511;29;20079;-78
2024/04/06 05:53:04;;;;;;;13.55;8.02;;;;;;;3.57;50.84;100156.41;4884641;29;20041;-75
2024/04/06 05:55:31;;;;;;;12.50;7.57;;;;;;;3.43;51.12;100127.75;4882352;29;20053;-76
2024/04/06 05:57:58;;;;;;;11.77;7.57;;;;;;;3.60;51.07;100137.56;4870813;29;20040;-77
2024/04/06 06:00:25;;;;;;;14.77;7.85;;;;;;;3.82;51.16;100145.81;4868340;29;20044;-75
2024/04/06 06:02:54;;;;;;;15.75;8.52;;;;;;;3.85;51.57;100130.47;4882185;29;20073;-74
2024/04/06 06:05:20;;;;;;;18.80;8.10;;;;;;;4.11;50.65;100138.78;4867339;29;20049;-76
2024/04/06 06:07:47;;;;;;;11.68;7.43;;;;;;;4.12;50.75;100119.91;4868020;29;20033;-76
2024/04/06 06:10:14;;;;;;;20.15;8.07;;;;;;;4.18;50.11;100129.50;4868645;29;21835;-76
2024/04/06 06:12:41;;;;;;;13.52;7.47;;;;;;;4.09;50.36;100132.72;4866791;29;20068;-76
2024/04/06 06:15:07;;;;;;;14.05;8.07;;;;;;;4.29;50.39;100143.47;4873201;29;20419;-78
2024/04/06 06:17:33;;;;;;;15.13;8.07;;;;;;;4.19;50.38;100133.81;4875429;29;20037;-79
2024/04/06 06:20:00;;;;;;;14.40;7.53;;;;;;;4.11;50.11;100113.03;4868862;29;20580;-76
2024/04/06 06:22:29;;;;;;;15.50;7.72;;;;;;;4.39;51.17;100129.09;4883581;29;20832;-77
2024/04/06 06:24:56;;;;;;;15.10;8.30;;;;;;;4.50;50.28;100134.47;4867733;29;20425;-74
2024/04/06 06:27:23;;;;;;;12.55;7.82;;;;;;;4.62;50.56;100139.03;4868014;29;20109;-73
2024/04/06 06:29:49;;;;;;;15.82;7.75;;;;;;;4.83;50.17;100151.50;4882823;29;20973;-75
2024/04/06 06:32:16;;;;;;;16.30;7.55;;;;;;;4.81;49.74;100125.66;4882176;29;20044;-75
2024/04/06 06:34:43;;;;;;;12.40;7.40;;;;;;;4.90;49.73;100126.69;4882712;29;20049;-75
2024/04/06 06:37:09;;;;;;;17.38;8.25;;;;;;;5.11;49.40;100137.41;4882196;29;20045;-76
2024/04/06 06:39:35;;;;;;;13.70;7.40;;;;;;;5.14;48.85;100136.59;4857053;29;20059;-77
2024/04/06 06:42:02;;;;;;;16.88;7.97;;;;;;;5.12;49.23;100105.63;4869697;29;20098;-77
2024/04/06 06:44:28;;;;;;;17.40;7.35;;;;;;;5.20;49.04;100099.72;4874641;29;20397;-77
2024/04/06 06:46:55;;;;;;;13.60;7.82;;;;;;;5.23;48.84;100116.13;4885655;29;20040;-75
2024/04/06 06:49:21;;;;;;;13.73;7.88;;;;;;;5.40;48.21;100126.75;4871087;29;20052;-75
2024/04/06 06:51:47;;;;;;;16.73;8.20;;;;;;;5.64;48.86;100093.56;4900152;29;20067;-74
2024/04/06 06:54:13;;;;;;;16.35;8.75;;;;;;;5.92;48.15;100106.94;4868657;29;20037;-75
2024/04/06 06:56:39;;;;;;;14.27;8.27;;;;;;;5.99;48.23;100129.41;4887204;29;20044;-77
2024/04/06 06:59:05;;;;;;;13.02;7.43;;;;;;;5.79;47.57;100098.13;4869462;29;20052;-75
2024/04/06 07:01:31;;;;;;;15.50;8.50;;;;;;;5.99;48.22;100112.19;4900869;29;20048;-74
2024/04/06 07:03:57;;;;;;;13.40;8.27;;;;;;;6.23;47.94;100107.38;4852311;29;20526;-75
2024/04/06 07:06:23;;;;;;;13.63;7.80;;;;;;;6.40;47.61;100092.09;4883787;29;20137;-73
2024/04/06 07:08:50;;;;;;;11.52;8.00;;;;;;;6.83;47.66;100113.31;4869219;29;20423;-75
2024/04/06 07:11:16;;;;;;;15.02;7.93;;;;;;;7.03;47.36;100087.66;4868780;29;20052;-76
2024/04/06 07:13:42;;;;;;;13.70;7.32;;;;;;;7.03;46.04;100099.72;4884567;29;20292;-73
2024/04/06 07:16:11;;;;;;;11.18;7.28;;;;;;;6.87;46.15;100111.63;4901658;29;20131;-76
2024/04/06 07:18:39;;;;;;;14.10;7.90;;;;;;;6.25;45.95;100039.38;4886775;29;20093;-76
2024/04/06 07:21:13;;;;;;;17.38;8.23;;;;;;;6.88;46.79;100103.00;4868075;29;20951;-83
2024/04/06 07:23:39;;;;;;;11.43;6.97;;;;;;;7.15;45.93;100094.69;4883753;29;20048;-75
2024/04/06 07:26:06;;;;;;;14.60;8.32;;;;;;;7.11;45.89;100097.22;4886245;29;20056;-74
2024/04/06 07:28:33;;;;;;;15.13;8.45;;;;;;;7.18;46.25;100099.88;4868844;29;20048;-75
2024/04/06 07:30:59;;;;;;;15.20;8.10;;;;;;;7.08;45.61;100059.25;4882816;29;20572;-73
2024/04/06 07:33:27;;;;;;;14.57;8.30;;;;;;;7.36;46.23;100111.28;4886276;29;20485;-73
2024/04/06 07:35:53;;;;;;;13.82;7.95;;;;;;;7.29;45.78;100089.63;4867017;29;20055;-74
2024/04/06 07:38:19;;;;;;;14.85;7.70;;;;;;;7.28;45.66;100084.44;4884102;29;20143;-75
2024/04/06 07:40:45;;;;;;;16.00;8.13;;;;;;;7.47;45.82;100088.91;4885344;29;20135;-75
2024/04/06 07:43:11;;;;;;;15.50;8.00;;;;;;;7.66;45.64;100099.41;4883272;29;20521;-73
2024/04/06 07:45:37;;;;;;;11.52;7.60;;;;;;;7.86;45.76;100084.03;4868090;29;20713;-74
2024/04/06 07:48:04;;;;;;;15.73;7.30;;;;;;;7.97;45.16;100076.34;4883785;29;20064;-74
2024/04/06 07:50:30;;;;;;;20.20;7.95;;;;;;;8.06;45.31;100080.69;4883578;29;20048;-74
2024/04/06 07:52:56;;;;;;;17.55;8.45;;;;;;;8.02;44.25;100077.22;4885370;29;20040;-74
2024/04/06 07:55:22;;;;;;;19.17;8.20;;;;;;;8.23;45.14;100086.00;4885471;29;21016;-74
2024/04/06 07:57:48;;;;;;;20.30;8.02;;;;;;;8.46;44.05;100088.69;4882958;29;20048;-75
2024/04/06 08:00:14;;;;;;;21.15;8.65;;;;;;;8.51;44.09;100088.72;4885371;29;20140;-74
2024/04/06 08:02:43;;;;;;;18.70;8.95;;;;;;;8.66;44.58;100083.63;4899619;29;20407;-74
2024/04/06 08:05:11;;;;;;;14.43;7.65;;;;;;;8.93;44.54;100050.81;4882854;29;20045;-78
2024/04/06 08:07:37;;;;;;;16.90;8.15;;;;;;;9.28;43.83;100055.19;4900286;29;20136;-72
2024/04/06 08:10:15;;;;;;;12.85;7.75;;;;;;;9.64;43.46;100065.56;4884188;29;20465;-74
2024/04/06 08:12:42;;;;;;;17.73;8.57;;;;;;;9.75;43.33;100074.19;4880504;29;20155;-74
2024/04/06 08:15:10;;;;;;;13.02;7.32;;;;;;;9.55;42.84;100063.84;4881704;29;20396;-75
2024/04/06 08:17:39;;;;;;;14.68;7.72;;;;;;;9.71;42.92;100048.22;4882520;29;20139;-74
2024/04/06 08:20:07;;;;;;;16.33;8.48;;;;;;;10.06;42.54;100055.09;4885529;29;20055;-76
2024/04/06 08:22:33;;;;;;;16.23;8.13;;;;;;;10.36;42.34;100054.16;4884957;29;20096;-75
2024/04/06 08:24:59;;;;;;;16.08;7.93;;;;;;;10.22;41.36;100054.19;4887474;29;20049;-76
2024/04/06 08:27:25;;;;;;;11.60;8.10;;;;;;;9.74;41.43;100032.63;4885012;29;20040;-76
2024/04/06 08:29:52;;;;;;;13.30;8.48;;;;;;;9.84;42.38;100041.28;4875153;29;20052;-75
2024/04/06 08:32:18;;;;;;;13.57;8.32;;;;;;;10.12;41.86;100042.06;4885820;29;20048;-74
2024/04/06 08:34:43;;;;;;;11.05;7.70;;;;;;;10.18;41.63;100046.38;4888433;29;20041;-73
2024/04/06 08:37:12;;;;;;;21.55;8.48;;;;;;;10.07;42.30;100033.41;4885847;29;20045;-78
2024/04/06 08:39:38;;;;;;;15.73;8.27;;;;;;;10.32;41.77;100047.22;4867817;29;20045;-74
2024/04/06 08:42:04;;;;;;;17.05;9.05;;;;;;;10.08;41.06;100028.22;4868868;29;20101;-76
2024/04/06 08:44:57;;;;;;;15.30;8.63;;;;;;;10.02;41.63;100051.63;4839065;29;20409;-75
2024/04/06 08:47:25;;;;;;;15.43;8.68;;;;;;;10.10;41.42;100043.81;4867161;29;20049;-78
2024/04/06 08:49:56;;;;;;;14.88;8.02;;;;;;;10.10;41.33;100028.22;4867669;29;20465;-77
2024/04/06 08:52:23;;;;;;;15.52;8.07;;;;;;;10.02;41.51;100027.38;4852870;29;21260;-78
2024/04/06 08:54:50;;;;;;;18.95;8.45;;;;;;;10.18;41.31;100029.06;4868451;29;20045;-76
2024/04/06 08:57:18;;;;;;;16.08;8.32;;;;;;;10.41;41.59;100035.94;4838382;29;20127;-77
2024/04/06 08:59:44;;;;;;;13.18;8.73;;;;;;;10.46;40.45;100028.97;4868627;29;20097;-74
2024/04/06 09:02:10;;;;;;;13.93;8.55;;;;;;;10.33;40.82;100035.06;4853077;29;20096;-79
2024/04/06 09:04:36;;;;;;;13.05;8.25;;;;;;;10.46;40.58;100031.59;4866513;29;20408;-75
2024/04/06 09:07:02;;;;;;;11.43;8.00;;;;;;;10.52;41.11;100009.88;4852328;29;20410;-75
2024/04/06 09:09:28;;;;;;;24.17;9.00;;;;;;;11.17;41.07;100011.16;4884450;29;20046;-77
2024/04/06 09:11:54;;;;;;;13.70;9.30;;;;;;;11.59;40.08;100022.97;4851579;29;20064;-76
2024/04/06 09:14:20;;;;;;;13.20;8.63;;;;;;;11.59;39.72;100019.47;4866889;29;20041;-75
2024/04/06 09:16:46;;;;;;;17.15;8.38;;;;;;;11.63;39.38;100017.72;4867204;29;20173;-76
2024/04/06 09:19:12;;;;;;;14.23;8.38;;;;;;;11.48;38.44;100030.00;4869539;29;20100;-73
2024/04/06 09:21:38;;;;;;;13.82;8.68;;;;;;;11.11;38.95;100032.91;4852038;29;20910;-76
2024/04/06 09:24:04;;;;;;;14.52;8.55;;;;;;;11.03;39.55;100032.13;4867771;29;20480;-75
2024/04/06 09:26:36;;;;;;;14.55;8.63;;;;;;;10.85;39.41;100037.44;4852343;29;20076;-77
2024/04/06 09:29:02;;;;;;;;;;;;;;;10.78;39.97;100035.72;4851949;29;20055;-77
2024/04/06 09:31:29;;;;;;;14.60;8.85;;;;;;;10.74;39.34;100026.22;4866467;29;19923;-79
2024/04/06 09:33:57;;;;;;;13.90;8.38;;;;;;;10.70;39.56;100038.38;4869673;29;20059;-79
2024/04/06 09:36:24;;;;;;;15.48;8.90;;;;;;;10.55;39.76;100028.06;4880934;29;20040;-77
2024/04/06 09:38:52;;;;;;;15.55;8.50;;;;;;;10.46;40.16;100031.59;4858779;29;20056;-77
2024/04/06 09:41:20;;;;;;;15.85;8.60;;;;;;;10.37;39.99;100031.56;4867984;29;20052;-77
2024/04/06 09:43:52;;;;;;;20.25;8.45;;;;;;;10.38;40.52;100030.72;4853501;29;20629;-76
2024/04/06 09:46:19;;;;;;;14.38;8.02;;;;;;;10.46;40.63;100038.50;4870559;29;20120;-74
2024/04/06 09:48:47;;;;;;;14.98;8.45;;;;;;;10.13;40.60;99991.78;4871466;29;20056;-74
2024/04/06 09:51:13;;;;;;;12.52;8.55;;;;;;;10.30;40.75;100025.53;4877943;29;20044;-74
2024/04/06 09:53:41;;;;;;;19.90;8.50;;;;;;;10.37;40.99;100022.03;4848542;29;20045;-74
2024/04/06 09:56:08;;;;;;;15.18;9.68;;;;;;;10.47;40.50;100014.22;4878220;29;20052;-75
2024/04/06 09:58:34;;;;;;;14.02;10.00;;;;;;;10.20;40.40;100005.63;4879565;29;20041;-72
2024/04/06 10:01:09;;;;;;;14.82;9.73;;;;;;;10.10;40.55;99994.41;4879560;29;20045;-73
2024/04/06 10:03:36;;;;;;;24.13;12.23;;;;;;;10.16;41.06;100011.72;4878733;29;20045;-76
2024/04/06 10:06:15;;;;;;;23.90;13.68;;;;;;;10.20;40.76;100005.63;4865476;29;20059;-75
2024/04/06 10:08:49;;;;;;;18.20;8.88;;;;;;;10.22;41.31;100007.38;4864840;29;20048;-75
2024/04/06 10:11:24;;;;;;;17.23;9.05;;;;;;;10.44;41.11;99996.91;4879972;29;20045;-76
2024/04/06 10:13:56;;;;;;;13.82;10.05;;;;;;;10.53;41.30;100007.25;4881877;29;20051;-76
2024/04/06 10:16:25;;;;;;;21.40;9.88;;;;;;;10.39;40.60;100003.84;4863735;29;20551;-76
2024/04/06 10:18:54;;;;;;;19.05;9.05;;;;;;;10.08;40.75;99988.34;4865301;29;20045;-78
2024/04/06 10:21:20;;;;;;;14.70;9.15;;;;;;;10.24;41.61;99987.44;4895942;29;20038;-78
2024/04/06 10:23:47;;;;;;;16.40;9.32;;;;;;;10.38;41.01;100000.38;4882050;29;20079;-78
2024/04/06 10:26:15;;;;;;;19.00;8.85;;;;;;;10.37;40.78;100005.56;4864940;29;20045;-78
2024/04/06 10:28:43;;;;;;;18.80;9.90;;;;;;;10.34;41.25;99998.66;4869287;29;20096;-76
2024/04/06 10:31:09;;;;;;;16.60;9.45;;;;;;;10.34;40.99;99979.56;4867970;29;20052;-76
2024/04/06 10:33:39;;;;;;;16.05;9.43;;;;;;;10.33;40.63;99985.63;4880080;29;20105;-79
2024/04/06 10:36:12;;;;;;;20.10;11.85;;;;;;;10.40;41.39;99969.16;4882315;29;20408;-79
2024/04/06 10:38:39;;;;;;;18.73;8.35;;;;;;;10.47;40.91;99973.47;4881976;29;20060;-78
2024/04/06 10:41:06;;;;;;;20.48;9.95;;;;;;;10.60;41.10;99992.44;4880484;29;20528;-78
2024/04/06 10:43:35;;;;;;;20.08;9.23;;;;;;;10.36;40.44;99968.31;4882985;29;20040;-78
2024/04/06 10:46:05;;;;;;;16.33;9.32;;;;;;;10.55;41.10;99983.84;4867602;29;20041;-78
2024/04/06 10:48:37;;;;;;;22.35;11.20;;;;;;;10.63;40.81;99975.97;4883394;29;20089;-76
2024/04/06 10:51:04;;;;;;;18.95;9.10;;;;;;;10.67;40.83;99978.53;4865256;29;20076;-78
2024/04/06 10:53:30;;;;;;;14.45;9.27;;;;;;;10.49;40.17;99966.50;4851423;29;20037;-76
2024/04/06 10:55:57;;;;;;;15.90;8.40;;;;;;;10.55;40.75;99995.09;4866090;29;20084;-76
2024/04/06 10:58:23;;;;;;;15.70;8.50;;;;;;;10.24;40.71;99983.94;4865343;29;20049;-76
2024/04/06 11:00:52;;;;;;;18.75;9.02;;;;;;;9.98;41.45;99982.31;4881107;29;20048;-78
2024/04/06 11:03:21;;;;;;;14.52;8.68;;;;;;;9.83;41.59;99978.03;4866262;29;20461;-75
2024/04/06 11:05:47;;;;;;;19.20;9.02;;;;;;;9.86;41.83;99983.22;4881607;29;20053;-75
2024/04/06 11:08:13;;;;;;;20.58;9.93;;;;;;;9.75;41.54;99967.66;4880455;29;20080;-75
2024/04/06 11:10:40;;;;;;;19.40;9.45;;;;;;;9.81;42.15;99974.59;4864962;29;20584;-74
2024/04/06 11:13:07;;;;;;;20.60;10.20;;;;;;;9.68;41.58;99971.16;4865239;29;20097;-75
2024/04/06 11:15:33;;;;;;;17.73;9.30;;;;;;;9.63;42.73;99965.09;4864321;29;20045;-76
2024/04/06 11:17:59;;;;;;;17.42;9.70;;;;;;;9.63;42.12;99986.75;4881155;29;20119;-75
2024/04/06 11:20:26;;;;;;;18.08;9.45;;;;;;;9.53;42.39;99978.97;4879172;29;20089;-75
2024/04/06 11:22:51;;;;;;;19.73;9.25;;;;;;;9.41;42.95;99965.16;4864873;29;20040;-73
2024/04/06 11:25:19;;;;;;;17.17;8.80;;;;;;;9.38;43.24;99944.38;4881606;29;20049;-72